Pagrindinis puslapis
METAR-TAF:

METAR-TAF

Oro uostai :

Seyresse

Dax, Prancūzija

platuma: 43-41N, ilguma: 001-04W, Aukštis: 32 m

Dabartinis oras

Ataskaita buvo paskelbta 16 minutes, ne 12:30 UTC
Vėjas 2 kt nuo kintamojo kryptimis
Temperatūra 11°C
Drėgmė 82%
Slėgis 1018 hPa
Matomumas 10 km arba daugiau

METAR: LFBY 251230Z AUTO VRB02KT 9999 // NSC 11/08 Q1018

Laikas: 13:46 (12:46 UTC)

Prognozė

Ataskaita buvo paskelbta 28 valandos ir 46 minutes, ne 08:00 UTC
Prognozė galioja nuo 24 metu 09 UTC su 24 metu 18 UTC
Vėjas 5 kt iš Rytų/Šiaurės Rytų
Matomumas: 8000 m
Laikinai
nuo 24 metu 09 UTC su 24 metu 13 UTC
Su prošvaistėmis ne aukštis 400 ft
Tapsmas
nuo 24 metu 15 UTC su 24 metu 17 UTC
Matomumas: 4000 m
rūkana

TAF: LFBY 240800Z 2409/2418 07005KT 8000 NSC TEMPO 2409/2413 BKN004 BECMG 2415/2417 4000 BR

Orai ataskaitas ir orų prognozės (METAR, TAF).

turimą stotys yra geltonos ir raudonos taškus žemėlapyje.

Perkelti pele per norėdami pamatyti stoties vardą.

Tada spustelėkite, norėdami matyti oro stebėjimo ir prognozės.

Norėdami pakeisti žemėlapį: spustelėkite ant žalios mygtukų su juodo kryžiaus žemyn,; žalią mygtuką su brūkšneliu, jei norite nutolinti; arba žalių rodyklių gretimoms žemėlapius.


METAR-TAF: